createdAt,value
2023-05-10T00:02:07.538Z,31.63
2023-05-10T00:05:10.514Z,31.89
2023-05-10T00:08:13.324Z,31.86
2023-05-10T00:11:16.060Z,31.73
2023-05-10T00:14:20.258Z,31.42
2023-05-10T00:17:23.091Z,31.69
2023-05-10T00:20:25.854Z,31.35
2023-05-10T00:23:28.687Z,31.33
2023-05-10T00:26:31.486Z,31.59
2023-05-10T00:29:35.610Z,31.73
2023-05-10T00:32:38.438Z,31.59
2023-05-10T00:35:41.451Z,31.44
2023-05-10T00:38:44.276Z,31.60
2023-05-10T00:41:47.045Z,31.73
2023-05-10T00:44:51.205Z,31.39
2023-05-10T00:47:56.329Z,31.65
2023-05-10T00:50:59.195Z,31.52
2023-05-10T00:54:02.320Z,31.76
2023-05-10T00:57:05.132Z,31.69
2023-05-10T01:00:10.813Z,31.81
2023-05-10T01:03:14.082Z,31.76
2023-05-10T01:06:17.025Z,31.61
2023-05-10T01:09:20.107Z,31.71
2023-05-10T01:12:23.058Z,31.84
2023-05-10T01:15:27.531Z,31.64
2023-05-10T01:18:31.644Z,31.87
2023-05-10T01:21:37.640Z,31.58
2023-05-10T01:25:04.256Z,31.63
2023-05-10T01:28:24.214Z,31.78
2023-05-10T01:31:41.469Z,31.75
2023-05-10T01:34:52.986Z,31.60
2023-05-10T01:38:03.460Z,31.74
2023-05-10T01:41:11.568Z,31.82
2023-05-10T01:44:19.600Z,31.88
2023-05-10T01:47:24.294Z,31.77
2023-05-10T01:50:31.354Z,31.66
2023-05-10T01:53:34.455Z,31.55
2023-05-10T01:56:39.974Z,31.54
2023-05-10T01:59:45.206Z,31.58
2023-05-10T02:02:49.625Z,31.50
2023-05-10T02:05:54.348Z,31.77
2023-05-10T02:08:57.283Z,31.56
2023-05-10T02:12:01.947Z,31.71
2023-05-10T02:15:06.668Z,31.69
2023-05-10T02:18:11.315Z,31.76
2023-05-10T02:21:16.512Z,31.93
2023-05-10T02:24:20.157Z,31.82
2023-05-10T02:27:23.233Z,31.78
2023-05-10T02:30:26.172Z,31.94
2023-05-10T02:33:29.603Z,31.98
2023-05-10T02:36:34.508Z,31.84
2023-05-10T02:39:37.469Z,32.03
2023-05-10T02:42:41.017Z,31.99
2023-05-10T02:45:45.329Z,32.09
2023-05-10T02:48:48.167Z,32.11
2023-05-10T02:51:53.763Z,32.00
2023-05-10T02:54:57.631Z,32.10
2023-05-10T02:58:02.312Z,31.89
2023-05-10T03:01:05.412Z,31.78
2023-05-10T03:04:08.328Z,32.08
2023-05-10T03:07:12.770Z,32.12
2023-05-10T03:10:15.721Z,31.93
2023-05-10T03:13:23.259Z,31.99
2023-05-10T03:16:29.403Z,31.83
2023-05-10T03:19:34.495Z,31.97
2023-05-10T03:22:40.097Z,32.04
2023-05-10T03:25:44.817Z,32.10
2023-05-10T03:28:47.951Z,31.92
2023-05-10T03:31:51.057Z,31.98
2023-05-10T03:34:53.880Z,32.10
2023-05-10T03:37:58.165Z,32.08
2023-05-10T03:41:00.942Z,31.95
2023-05-10T03:44:04.167Z,32.04
2023-05-10T03:47:07.317Z,31.89
2023-05-10T03:50:11.383Z,32.04
2023-05-10T03:53:15.620Z,31.85
2023-05-10T03:56:18.330Z,31.75
2023-05-10T03:59:21.194Z,32.04
2023-05-10T04:02:23.989Z,31.91
2023-05-10T04:05:26.946Z,31.97
2023-05-10T04:08:31.201Z,32.04
2023-05-10T04:11:34.065Z,32.03
2023-05-10T04:14:36.791Z,32.10
2023-05-10T04:17:39.629Z,31.91
2023-05-10T04:20:42.391Z,31.95
2023-05-10T04:23:46.514Z,31.82
2023-05-10T04:26:49.301Z,31.69
2023-05-10T04:29:52.321Z,31.63
2023-05-10T04:32:55.133Z,31.43
2023-05-10T04:35:58.087Z,31.46
2023-05-10T04:39:03.748Z,31.62
2023-05-10T04:42:07.368Z,31.63
2023-05-10T04:45:11.592Z,31.48
2023-05-10T04:48:14.591Z,31.70
2023-05-10T04:51:17.470Z,31.75
2023-05-10T04:54:21.619Z,31.51
2023-05-10T04:57:24.483Z,31.28
2023-05-10T05:00:27.359Z,31.48
2023-05-10T05:03:30.208Z,31.41
2023-05-10T05:06:33.110Z,31.26
2023-05-10T05:09:37.289Z,31.24
2023-05-10T05:12:40.126Z,31.29
2023-05-10T05:15:42.955Z,31.00
2023-05-10T05:18:45.711Z,31.40
2023-05-10T05:21:48.464Z,31.17
2023-05-10T05:24:52.657Z,31.16
2023-05-10T05:27:55.477Z,31.12
2023-05-10T05:30:58.228Z,31.21
2023-05-10T05:34:00.965Z,31.33
2023-05-10T05:37:03.758Z,30.76
2023-05-10T05:40:08.567Z,31.07
2023-05-10T05:43:11.363Z,31.02
2023-05-10T05:46:14.154Z,30.71
2023-05-10T05:49:17.089Z,31.39
2023-05-10T05:52:19.924Z,31.06
2023-05-10T05:55:25.172Z,31.35
2023-05-10T05:58:28.077Z,30.44
2023-05-10T06:01:30.823Z,30.71
2023-05-10T06:04:33.705Z,30.50
2023-05-10T06:07:36.541Z,30.46
2023-05-10T06:10:40.714Z,30.76
2023-05-10T06:13:43.926Z,30.75
2023-05-10T06:16:46.763Z,31.07
2023-05-10T06:19:49.629Z,31.16
2023-05-10T06:22:52.377Z,30.91
2023-05-10T06:25:56.574Z,31.08
2023-05-10T06:28:59.336Z,30.51
2023-05-10T06:32:02.354Z,30.99
2023-05-10T06:35:05.412Z,30.87
2023-05-10T06:38:08.202Z,30.27
2023-05-10T06:41:12.707Z,30.16
2023-05-10T06:44:15.645Z,30.01
2023-05-10T06:47:18.402Z,29.73
2023-05-10T06:50:21.249Z,29.61
2023-05-10T06:53:24.108Z,29.88
2023-05-10T06:56:28.198Z,30.07
2023-05-10T06:59:31.068Z,30.51
2023-05-10T07:02:34.056Z,29.88
2023-05-10T07:05:37.080Z,30.28
2023-05-10T07:08:39.909Z,29.96
2023-05-10T07:11:44.098Z,29.10
2023-05-10T07:14:46.901Z,29.84
2023-05-10T07:17:49.833Z,29.58
2023-05-10T07:20:52.945Z,29.34
2023-05-10T07:23:55.698Z,28.74
2023-05-10T07:26:59.889Z,29.48
2023-05-10T07:30:02.703Z,30.03
2023-05-10T07:33:05.551Z,29.76
2023-05-10T07:36:08.670Z,29.61
2023-05-10T07:39:14.404Z,29.82
2023-05-10T07:42:20.628Z,29.77
2023-05-10T07:45:24.009Z,29.92
2023-05-10T07:48:26.847Z,30.05
2023-05-10T07:51:29.715Z,30.30
2023-05-10T07:54:32.500Z,29.91
2023-05-10T07:57:36.826Z,29.91
2023-05-10T08:00:40.620Z,29.94
2023-05-10T08:03:43.506Z,29.99
2023-05-10T08:06:46.339Z,29.95
2023-05-10T08:09:49.059Z,30.00
2023-05-10T08:12:53.292Z,29.78
2023-05-10T08:15:56.106Z,29.89
2023-05-10T08:18:58.965Z,29.96
2023-05-10T08:22:01.855Z,30.09
2023-05-10T08:25:04.772Z,29.82
2023-05-10T08:28:09.978Z,29.67
2023-05-10T08:31:14.130Z,29.79
2023-05-10T08:34:16.908Z,29.84
2023-05-10T08:37:19.717Z,29.84
2023-05-10T08:40:22.714Z,29.83
2023-05-10T08:43:28.522Z,29.96
2023-05-10T08:46:33.177Z,29.77
2023-05-10T08:49:36.208Z,29.59
2023-05-10T08:52:40.855Z,29.80
2023-05-10T08:55:43.903Z,29.66
2023-05-10T08:58:48.190Z,29.65
2023-05-10T09:01:51.732Z,29.68
2023-05-10T09:04:54.598Z,29.81
2023-05-10T09:07:57.696Z,29.73
2023-05-10T09:11:02.530Z,29.43
2023-05-10T09:14:06.684Z,29.63
2023-05-10T09:17:09.845Z,30.67
2023-05-10T09:20:12.692Z,29.47
2023-05-10T09:23:15.466Z,29.26
2023-05-10T09:26:18.534Z,29.40
2023-05-10T09:29:22.704Z,29.62
2023-05-10T09:32:37.782Z,29.42
2023-05-10T09:35:41.248Z,29.57
2023-05-10T09:38:47.828Z,29.66
2023-05-10T09:41:50.623Z,30.02
2023-05-10T09:44:54.813Z,29.56
2023-05-10T09:47:57.950Z,30.02
2023-05-10T09:51:00.813Z,29.67
2023-05-10T09:54:13.568Z,29.74
2023-05-10T09:57:22.171Z,29.54
2023-05-10T10:00:26.305Z,30.00
2023-05-10T10:03:30.698Z,30.36
2023-05-10T10:06:37.541Z,29.39
2023-05-10T10:09:40.674Z,29.89
2023-05-10T10:12:43.706Z,29.52
2023-05-10T10:15:52.224Z,29.51
2023-05-10T10:18:55.391Z,30.46
2023-05-10T10:21:58.280Z,30.14
2023-05-10T10:25:01.212Z,30.04
2023-05-10T10:28:12.500Z,30.17
2023-05-10T10:31:20.284Z,30.05
2023-05-10T10:34:27.483Z,30.04
2023-05-10T10:37:43.473Z,29.98
2023-05-10T10:40:46.231Z,29.62
2023-05-10T10:43:48.969Z,29.61
2023-05-10T10:47:09.753Z,29.44
2023-05-10T10:50:14.740Z,29.51
2023-05-10T10:53:20.546Z,29.04
2023-05-10T10:56:25.330Z,29.40
2023-05-10T10:59:29.066Z,29.34
2023-05-10T11:02:36.231Z,29.35
2023-05-10T11:05:44.257Z,29.43
2023-05-10T11:08:47.154Z,29.15
2023-05-10T11:11:56.189Z,29.22
2023-05-10T11:14:59.592Z,29.77
2023-05-10T11:18:02.716Z,30.07
2023-05-10T11:21:07.133Z,29.27
2023-05-10T11:24:15.235Z,29.84
2023-05-10T11:27:18.033Z,29.50
2023-05-10T11:30:21.300Z,29.55
2023-05-10T11:33:24.111Z,29.44
2023-05-10T11:36:29.188Z,29.53
2023-05-10T11:39:32.865Z,29.33
2023-05-10T11:42:35.661Z,29.27
2023-05-10T11:45:38.827Z,29.24
2023-05-10T11:48:46.938Z,29.31
2023-05-10T11:51:51.049Z,29.31
2023-05-10T11:54:57.160Z,28.62
2023-05-10T11:58:03.014Z,29.12
2023-05-10T12:01:06.732Z,29.08
2023-05-10T12:04:09.876Z,29.23
2023-05-10T12:07:14.405Z,29.37
2023-05-10T12:10:18.782Z,29.27
2023-05-10T12:13:22.200Z,29.32
2023-05-10T12:16:25.798Z,29.38
2023-05-10T12:19:28.599Z,29.21
2023-05-10T12:22:35.983Z,29.34
2023-05-10T12:25:39.237Z,29.30
2023-05-10T12:28:41.961Z,29.23
2023-05-10T12:31:57.283Z,29.01
2023-05-10T12:34:59.970Z,29.25
2023-05-10T12:38:24.517Z,29.31
2023-05-10T12:41:27.258Z,29.21
2023-05-10T12:44:29.973Z,29.31
2023-05-10T12:47:32.695Z,29.24
2023-05-10T12:50:35.628Z,29.29
2023-05-10T12:53:41.409Z,28.77
2023-05-10T12:56:47.971Z,29.19
2023-05-10T12:59:50.867Z,29.30
2023-05-10T13:02:54.145Z,29.02
2023-05-10T13:05:56.871Z,29.04
2023-05-10T13:09:00.986Z,29.49
2023-05-10T13:12:03.991Z,29.18
2023-05-10T13:15:07.775Z,29.26
2023-05-10T13:18:10.715Z,29.23
2023-05-10T13:21:13.536Z,28.82
2023-05-10T13:24:18.052Z,29.23
2023-05-10T13:27:20.786Z,29.24
2023-05-10T13:30:24.844Z,29.23
2023-05-10T13:33:27.584Z,28.74
2023-05-10T13:36:30.336Z,29.21
2023-05-10T13:39:35.523Z,29.35
2023-05-10T13:42:38.570Z,29.37
2023-05-10T13:45:41.296Z,29.40
2023-05-10T13:48:43.992Z,29.34
2023-05-10T13:51:46.758Z,29.27
2023-05-10T13:54:52.993Z,29.34
2023-05-10T13:57:55.821Z,29.17
2023-05-10T14:01:00.714Z,29.47
2023-05-10T14:04:03.548Z,29.53
2023-05-10T14:07:06.790Z,29.54
2023-05-10T14:10:11.547Z,29.56
2023-05-10T14:13:14.428Z,29.57
2023-05-10T14:16:17.580Z,29.04
2023-05-10T14:19:20.389Z,29.27
2023-05-10T14:22:23.680Z,29.44
2023-05-10T14:25:27.811Z,29.62
2023-05-10T14:28:30.669Z,29.51
2023-05-10T14:31:33.695Z,29.47
2023-05-10T14:34:36.461Z,29.46
2023-05-10T14:37:39.253Z,29.17
2023-05-10T14:40:43.739Z,29.40
2023-05-10T14:43:46.999Z,29.45
2023-05-10T14:46:50.793Z,29.50
2023-05-10T14:49:53.651Z,29.61
2023-05-10T14:53:32.829Z,29.33
2023-05-10T14:56:38.386Z,29.48
2023-05-10T14:59:41.168Z,29.29
2023-05-10T15:02:44.751Z,29.43
2023-05-10T15:05:49.215Z,29.51
2023-05-10T15:08:52.673Z,29.42
2023-05-10T15:11:57.419Z,29.36
2023-05-10T15:15:00.254Z,29.36
2023-05-10T15:18:03.005Z,29.32
2023-05-10T15:21:05.699Z,29.57
2023-05-10T15:24:08.629Z,29.39
2023-05-10T15:27:12.654Z,29.53
2023-05-10T15:30:15.580Z,29.68
2023-05-10T15:33:18.305Z,29.60
2023-05-10T15:36:21.025Z,29.58
2023-05-10T15:39:23.845Z,29.41
2023-05-10T15:42:27.913Z,29.65
2023-05-10T15:45:30.754Z,29.69
2023-05-10T15:48:33.533Z,29.41
2023-05-10T15:51:36.825Z,29.76
2023-05-10T15:54:39.754Z,29.81
2023-05-10T15:57:44.924Z,30.02
2023-05-10T16:00:47.634Z,29.80
2023-05-10T16:03:50.562Z,29.99
2023-05-10T16:06:53.338Z,30.22
2023-05-10T16:09:56.161Z,30.12
2023-05-10T16:13:00.671Z,30.17
2023-05-10T16:16:03.508Z,30.12
2023-05-10T16:19:06.366Z,30.16
2023-05-10T16:22:09.215Z,30.13
2023-05-10T16:25:13.638Z,30.07
2023-05-10T16:28:19.596Z,30.19
2023-05-10T16:31:22.523Z,30.18
2023-05-10T16:34:25.537Z,30.07
2023-05-10T16:37:29.534Z,30.18
2023-05-10T16:40:34.142Z,30.28
2023-05-10T16:43:38.266Z,30.54
2023-05-10T16:46:41.073Z,30.48
2023-05-10T16:49:43.929Z,30.61
2023-05-10T16:52:47.313Z,30.62
2023-05-10T16:55:50.123Z,30.77
2023-05-10T16:58:54.194Z,30.76
2023-05-10T17:01:57.048Z,30.72
2023-05-10T17:04:59.918Z,30.79
2023-05-10T17:08:02.669Z,30.59
2023-05-10T17:11:05.672Z,31.26
2023-05-10T17:14:10.255Z,31.20
2023-05-10T17:17:13.099Z,31.19
2023-05-10T17:20:16.609Z,30.99
2023-05-10T17:23:19.461Z,31.21
2023-05-10T17:26:22.457Z,31.41
2023-05-10T17:29:26.643Z,31.40
2023-05-10T17:32:29.431Z,31.67
2023-05-10T17:35:34.290Z,31.71
2023-05-10T17:38:37.520Z,31.77
2023-05-10T17:41:40.320Z,31.71
2023-05-10T17:44:44.482Z,31.88
2023-05-10T17:47:47.285Z,31.94
2023-05-10T17:50:50.817Z,31.96
2023-05-10T17:53:53.925Z,32.00
2023-05-10T17:56:58.146Z,32.16
2023-05-10T18:00:03.977Z,32.03
2023-05-10T18:03:06.863Z,31.96
2023-05-10T18:06:12.627Z,31.49
2023-05-10T18:09:16.309Z,31.52
2023-05-10T18:12:19.155Z,31.26
2023-05-10T18:15:23.300Z,31.21
2023-05-10T18:18:26.140Z,30.95
2023-05-10T18:21:29.169Z,31.12
2023-05-10T18:24:38.235Z,31.54
2023-05-10T18:27:42.605Z,31.49
2023-05-10T18:30:46.779Z,31.32
2023-05-10T18:33:49.562Z,31.58
2023-05-10T18:36:52.530Z,31.79
2023-05-10T18:39:55.270Z,31.93
2023-05-10T18:42:58.348Z,31.71
2023-05-10T18:46:02.685Z,31.74
2023-05-10T18:49:06.610Z,31.90
2023-05-10T18:52:09.542Z,32.12
2023-05-10T18:55:12.366Z,32.25
2023-05-10T18:58:15.465Z,32.13
2023-05-10T19:01:19.641Z,32.24
2023-05-10T19:04:22.517Z,32.22
2023-05-10T19:07:25.240Z,31.98
2023-05-10T19:10:28.086Z,32.30
2023-05-10T19:13:30.862Z,32.48
2023-05-10T19:16:35.918Z,32.20
2023-05-10T19:19:38.735Z,32.38
2023-05-10T19:22:57.914Z,32.57
2023-05-10T19:26:05.843Z,32.23
2023-05-10T19:29:08.772Z,32.66
2023-05-10T19:32:13.435Z,32.67
2023-05-10T19:35:16.857Z,32.64
2023-05-10T19:38:21.487Z,32.78
2023-05-10T19:41:24.478Z,32.85
2023-05-10T19:44:27.382Z,32.97
2023-05-10T19:47:31.943Z,32.75
2023-05-10T19:50:34.746Z,32.75
2023-05-10T19:53:37.457Z,33.04
2023-05-10T19:56:40.277Z,32.66
2023-05-10T19:59:43.063Z,32.52
2023-05-10T20:02:47.247Z,32.55
2023-05-10T20:05:50.062Z,32.94
2023-05-10T20:08:52.854Z,32.69
2023-05-10T20:11:55.624Z,32.91
2023-05-10T20:14:58.471Z,32.91
2023-05-10T20:18:03.745Z,33.09
2023-05-10T20:21:06.598Z,33.09
2023-05-10T20:24:10.070Z,33.18
2023-05-10T20:27:12.882Z,33.03
2023-05-10T20:30:15.880Z,33.02
2023-05-10T20:33:20.268Z,33.13
2023-05-10T20:36:23.174Z,33.10
2023-05-10T20:39:25.953Z,33.10
2023-05-10T20:42:28.713Z,33.28
2023-05-10T20:45:31.568Z,32.99
2023-05-10T20:48:35.727Z,33.57
2023-05-10T20:51:38.557Z,34.58
2023-05-10T20:54:41.303Z,34.99
2023-05-10T20:57:44.244Z,35.68
2023-05-10T21:00:47.073Z,35.67
2023-05-10T21:04:26.377Z,36.19
2023-05-10T21:07:32.411Z,36.03
2023-05-10T21:10:35.180Z,35.97
2023-05-10T21:13:38.000Z,36.30
2023-05-10T21:16:40.859Z,35.54
2023-05-10T21:19:44.742Z,35.30
2023-05-10T21:22:49.026Z,35.22
2023-05-10T21:25:51.767Z,34.88
2023-05-10T21:28:54.592Z,35.67
2023-05-10T21:32:16.060Z,34.75
2023-05-10T21:35:19.060Z,34.38
2023-05-10T21:38:23.392Z,34.65
2023-05-10T21:41:26.708Z,32.72
2023-05-10T21:44:29.584Z,32.15
2023-05-10T21:47:32.432Z,31.93
2023-05-10T21:50:35.264Z,33.18
2023-05-10T21:53:40.575Z,35.49
2023-05-10T21:56:43.423Z,34.79
2023-05-10T21:59:46.196Z,34.66
2023-05-10T22:02:49.077Z,33.95
2023-05-10T22:05:51.942Z,33.65
2023-05-10T22:08:56.271Z,33.71
2023-05-10T22:11:59.075Z,34.12
2023-05-10T22:15:10.536Z,33.76
2023-05-10T22:18:13.895Z,33.91
2023-05-10T22:21:16.706Z,33.43
2023-05-10T22:24:21.554Z,34.28
2023-05-10T22:27:24.361Z,33.82
2023-05-10T22:30:27.155Z,33.65
2023-05-10T22:33:29.956Z,33.62
2023-05-10T22:36:32.860Z,33.67
2023-05-10T22:39:36.953Z,33.65
2023-05-10T22:42:39.809Z,33.45
2023-05-10T22:45:42.640Z,33.63
2023-05-10T22:48:45.460Z,33.62
2023-05-10T22:51:48.332Z,33.69
2023-05-10T22:54:52.477Z,33.83
2023-05-10T22:57:55.460Z,33.41
2023-05-10T23:00:58.214Z,33.28
2023-05-10T23:04:06.979Z,33.07
2023-05-10T23:07:09.819Z,33.16
2023-05-10T23:10:14.055Z,33.24
2023-05-10T23:13:16.851Z,33.29
2023-05-10T23:16:19.640Z,33.29
2023-05-10T23:19:22.434Z,33.13
2023-05-10T23:22:25.147Z,33.21
2023-05-10T23:25:29.257Z,33.10
2023-05-10T23:28:32.031Z,33.16
2023-05-10T23:31:34.810Z,33.25
2023-05-10T23:34:37.686Z,33.21
2023-05-10T23:37:42.103Z,33.16
2023-05-10T23:40:48.535Z,33.20
2023-05-10T23:43:51.459Z,33.10
2023-05-10T23:46:54.279Z,33.08
2023-05-10T23:49:57.107Z,33.18
2023-05-10T23:52:59.940Z,32.97
2023-05-10T23:56:04.339Z,33.02
2023-05-10T23:59:07.137Z,33.03
